createdAt,value
2018-12-06T00:01:39.197Z,101322.52
2018-12-06T00:04:25.764Z,101327.96
2018-12-06T00:07:11.002Z,101335.87
2018-12-06T00:09:40.078Z,101336.97
2018-12-06T00:12:09.712Z,101330.98
2018-12-06T00:14:38.879Z,101321.70
2018-12-06T00:17:08.089Z,101312.16
2018-12-06T00:19:37.210Z,101305.34
2018-12-06T00:22:06.365Z,101302.09
2018-12-06T00:24:35.402Z,101305.06
2018-12-06T00:27:04.519Z,101325.52
2018-12-06T00:29:33.699Z,101324.72
2018-12-06T00:32:03.078Z,101316.25
2018-12-06T00:34:32.164Z,101329.34
2018-12-06T00:37:01.429Z,101336.70
2018-12-06T00:39:30.749Z,101349.50
2018-12-06T00:41:59.837Z,101355.52
2018-12-06T00:44:29.039Z,101369.39
2018-12-06T00:46:58.354Z,101374.05
2018-12-06T00:49:27.648Z,101391.77
2018-12-06T00:51:57.705Z,101398.85
2018-12-06T00:54:27.061Z,101396.66
2018-12-06T00:56:56.986Z,101394.20
2018-12-06T00:59:26.587Z,101402.92
2018-12-06T01:01:55.751Z,101413.55
2018-12-06T01:04:24.974Z,101400.46
2018-12-06T01:06:54.124Z,101407.54
2018-12-06T01:09:23.613Z,101402.09
2018-12-06T01:11:52.893Z,101399.66
2018-12-06T01:14:22.174Z,101394.47
2018-12-06T01:16:51.305Z,101394.20
2018-12-06T01:19:20.384Z,101378.38
2018-12-06T01:21:49.450Z,101371.57
2018-12-06T01:24:18.545Z,101367.22
2018-12-06T01:26:47.640Z,101375.93
2018-12-06T01:29:16.778Z,101380.30
2018-12-06T01:31:45.909Z,101370.75
2018-12-06T01:34:15.041Z,101371.82
2018-12-06T01:36:44.149Z,101367.17
2018-12-06T01:39:13.261Z,101352.19
2018-12-06T01:41:42.428Z,101352.19
2018-12-06T01:44:11.628Z,101359.27
2018-12-06T01:46:41.376Z,101357.38
2018-12-06T01:49:10.454Z,101367.45
2018-12-06T01:51:39.629Z,101370.17
2018-12-06T01:54:08.970Z,101380.25
2018-12-06T01:56:39.017Z,101379.18
2018-12-06T01:59:08.147Z,101374.53
2018-12-06T02:01:37.288Z,101357.36
2018-12-06T02:04:06.478Z,101373.98
2018-12-06T02:06:35.723Z,101372.91
2018-12-06T02:09:06.193Z,101372.62
2018-12-06T02:11:35.339Z,101370.72
2018-12-06T02:14:04.451Z,101376.44
2018-12-06T02:16:33.632Z,101371.52
2018-12-06T02:19:02.811Z,101376.44
2018-12-06T02:21:31.939Z,101370.70
2018-12-06T02:24:01.086Z,101372.89
2018-12-06T02:26:30.341Z,101374.78
2018-12-06T02:28:59.544Z,101378.34
2018-12-06T02:31:28.706Z,101378.08
2018-12-06T02:33:57.833Z,101388.41
2018-12-06T03:05:59.189Z,101418.67
2018-12-06T03:08:29.251Z,101414.05
2018-12-06T03:10:58.320Z,101403.71
2018-12-06T03:13:27.381Z,101407.27
2018-12-06T03:15:56.428Z,101413.52
2018-12-06T03:18:25.593Z,101407.53
2018-12-06T03:20:54.975Z,101410.78
2018-12-06T03:23:24.092Z,101418.70
2018-12-06T03:25:53.184Z,101418.96
2018-12-06T03:28:23.350Z,101417.34
2018-12-06T03:30:52.439Z,101422.49
2018-12-06T03:33:21.625Z,101416.78
2018-12-06T03:35:50.776Z,101415.68
2018-12-06T03:38:19.969Z,101414.88
2018-12-06T03:40:48.979Z,101402.63
2018-12-06T03:43:18.501Z,101408.60
2018-12-06T03:45:47.600Z,101407.23
2018-12-06T03:48:16.662Z,101409.97
2018-12-06T03:50:45.724Z,101427.69
2018-12-06T03:53:14.803Z,101433.39
2018-12-06T03:55:43.881Z,101433.39
2018-12-06T03:58:12.974Z,101440.20
2018-12-06T04:00:42.060Z,101444.03
2018-12-06T04:03:11.243Z,101439.41
2018-12-06T04:05:40.289Z,101438.84
2018-12-06T04:08:09.349Z,101435.59
2018-12-06T04:10:38.372Z,101443.77
2018-12-06T04:13:07.462Z,101448.39
2018-12-06T04:15:36.496Z,101460.95
2018-12-06T04:18:05.734Z,101470.48
2018-12-06T04:20:34.905Z,101469.95
2018-12-06T04:23:03.967Z,101474.30
2018-12-06T04:25:33.108Z,101480.84
2018-12-06T04:28:02.182Z,101478.66
2018-12-06T04:30:31.242Z,101483.58
2018-12-06T04:33:00.305Z,101478.13
2018-12-06T04:35:29.502Z,101470.75
2018-12-06T04:37:58.611Z,101458.48
2018-12-06T04:40:27.717Z,101463.67
2018-12-06T04:42:56.797Z,101467.47
2018-12-06T04:45:26.871Z,101463.38
2018-12-06T04:47:56.129Z,101464.48
2018-12-06T04:50:25.228Z,101471.29
2018-12-06T04:52:54.334Z,101478.36
2018-12-06T04:55:23.450Z,101472.94
2018-12-06T04:57:52.552Z,101459.84
2018-12-06T05:00:21.646Z,101450.05
2018-12-06T05:02:50.671Z,101450.05
2018-12-06T05:05:19.849Z,101453.84
2018-12-06T05:07:48.941Z,101445.66
2018-12-06T05:10:18.660Z,101441.31
2018-12-06T05:12:47.756Z,101439.69
2018-12-06T05:15:16.866Z,101433.41
2018-12-06T05:17:45.935Z,101440.75
2018-12-06T05:20:15.059Z,101426.86
2018-12-06T05:22:44.150Z,101415.41
2018-12-06T05:25:13.179Z,101428.49
2018-12-06T05:27:42.379Z,101431.22
2018-12-06T05:30:12.768Z,101420.85
2018-12-06T05:32:41.900Z,101435.84
2018-12-06T05:35:11.181Z,101435.55
2018-12-06T05:37:40.350Z,101446.74
2018-12-06T05:40:10.346Z,101448.64
2018-12-06T05:42:39.888Z,101433.65
2018-12-06T05:45:09.047Z,101427.38
2018-12-06T05:47:38.282Z,101436.11
2018-12-06T05:50:07.880Z,101434.74
2018-12-06T05:52:37.007Z,101440.75
2018-12-06T05:55:06.176Z,101441.84
2018-12-06T05:57:35.299Z,101440.19
2018-12-06T06:00:05.449Z,101451.09
2018-12-06T06:02:34.667Z,101454.92
2018-12-06T06:05:03.871Z,101461.99
2018-12-06T06:07:33.109Z,101460.63
2018-12-06T06:10:02.349Z,101453.31
2018-12-06T06:12:31.443Z,101460.66
2018-12-06T06:15:00.476Z,101461.75
2018-12-06T06:17:29.590Z,101475.41
2018-12-06T06:19:58.715Z,101484.37
2018-12-06T06:22:28.708Z,101479.22
2018-12-06T06:24:57.774Z,101475.13
2018-12-06T06:27:26.887Z,101459.88
2018-12-06T06:29:55.975Z,101453.89
2018-12-06T06:32:25.069Z,101459.34
2018-12-06T06:34:54.142Z,101468.08
2018-12-06T06:37:23.261Z,101481.41
2018-12-06T06:39:53.026Z,101484.95
2018-12-06T06:42:22.066Z,101480.07
2018-12-06T06:44:51.093Z,101474.34
2018-12-06T06:47:20.359Z,101479.80
2018-12-06T06:49:49.534Z,101486.08
2018-12-06T06:52:18.656Z,101478.17
2018-12-06T06:54:47.892Z,101475.44
2018-12-06T06:57:17.168Z,101486.88
2018-12-06T06:59:46.367Z,101499.44
2018-12-06T07:02:16.174Z,101506.79
2018-12-06T07:04:47.578Z,101506.81
2018-12-06T07:07:16.687Z,101521.00
2018-12-06T07:09:45.736Z,101522.63
2018-12-06T07:12:14.804Z,101521.53
2018-12-06T07:14:43.923Z,101520.17
2018-12-06T07:17:13.105Z,101531.08
2018-12-06T07:19:42.231Z,101528.09
2018-12-06T07:22:11.297Z,101521.53
2018-12-06T07:24:40.559Z,101538.45
2018-12-06T07:27:09.654Z,101542.83
2018-12-06T07:29:38.772Z,101542.03
2018-12-06T07:32:08.072Z,101542.56
2018-12-06T07:34:37.160Z,101542.30
2018-12-06T07:37:06.336Z,101544.77
2018-12-06T07:39:35.463Z,101549.94
2018-12-06T07:42:04.582Z,101543.92
2018-12-06T07:44:33.780Z,101549.12
2018-12-06T07:47:02.969Z,101553.47
2018-12-06T07:49:32.154Z,101553.73
2018-12-06T07:52:01.367Z,101551.58
2018-12-06T07:54:30.639Z,101550.48
2018-12-06T07:56:59.854Z,101556.76
2018-12-06T07:59:28.909Z,101555.93
2018-12-06T08:01:58.459Z,101556.48
2018-12-06T08:04:27.571Z,101552.41
2018-12-06T08:06:56.842Z,101554.30
2018-12-06T08:09:26.736Z,101554.83
2018-12-06T08:11:56.551Z,101555.40
2018-12-06T08:14:27.975Z,101547.48
2018-12-06T08:16:58.408Z,101555.91
2018-12-06T08:19:29.200Z,101549.09
2018-12-06T08:22:00.488Z,101553.45
2018-12-06T08:36:01.005Z,101570.39
2018-12-06T08:38:32.148Z,101576.97
2018-12-06T08:41:01.188Z,101568.78
2018-12-06T08:43:31.822Z,101565.25
2018-12-06T08:45:59.656Z,101566.88
2018-12-06T08:48:29.066Z,101566.08
2018-12-06T08:50:59.338Z,101565.84
2018-12-06T08:53:28.444Z,101561.48
2018-12-06T08:55:58.595Z,101561.20
2018-12-06T08:58:27.795Z,101563.66
2018-12-06T09:00:57.021Z,101559.04
2018-12-06T09:03:26.318Z,101552.78
2018-12-06T09:05:55.696Z,101558.76
2018-12-06T09:08:24.888Z,101552.23
2018-12-06T09:10:54.398Z,101554.69
2018-12-06T09:13:23.717Z,101561.23
2018-12-06T09:15:53.011Z,101559.08
2018-12-06T09:18:22.207Z,101549.27
2018-12-06T09:20:51.589Z,101545.73
2018-12-06T09:23:20.752Z,101538.63
2018-12-06T09:25:49.916Z,101534.80
2018-12-06T09:28:19.106Z,101527.44
2018-12-06T09:30:49.646Z,101526.63
2018-12-06T09:33:18.833Z,101532.38
2018-12-06T09:35:48.187Z,101530.75
2018-12-06T09:38:17.435Z,101533.20
2018-12-06T09:40:46.629Z,101531.01
2018-12-06T09:43:15.745Z,101537.03
2018-12-06T09:45:45.005Z,101535.67
2018-12-06T09:48:14.191Z,101540.02
2018-12-06T09:50:43.336Z,101548.21
2018-12-06T09:53:12.773Z,101562.68
2018-12-06T09:55:42.032Z,101563.22
2018-12-06T09:58:11.137Z,101563.77
2018-12-06T10:00:40.196Z,101565.40
2018-12-06T10:03:12.630Z,101572.52
2018-12-06T10:05:41.899Z,101570.32
2018-12-06T10:08:11.156Z,101578.50
2018-12-06T10:10:40.402Z,101577.68
2018-12-06T10:13:09.468Z,101587.23
2018-12-06T10:15:38.535Z,101588.89
2018-12-06T10:18:07.658Z,101595.70
2018-12-06T10:20:37.121Z,101590.52
2018-12-06T10:23:06.445Z,101587.25
2018-12-06T10:25:35.969Z,101581.52
2018-12-06T10:28:05.340Z,101573.33
2018-12-06T10:30:34.504Z,101580.45
2018-12-06T10:33:03.583Z,101574.72
2018-12-06T10:35:32.671Z,101579.91
2018-12-06T10:38:01.830Z,101577.18
2018-12-06T10:40:31.426Z,101567.91
2018-12-06T10:43:01.611Z,101562.18
2018-12-06T10:45:31.515Z,101563.84
2018-12-06T10:48:00.567Z,101569.58
2018-12-06T10:50:29.864Z,101575.30
2018-12-06T10:52:59.048Z,101568.20
2018-12-06T10:55:28.331Z,101572.30
2018-12-06T10:57:57.563Z,101566.58
2018-12-06T11:02:42.242Z,101561.39
2018-12-06T11:05:12.517Z,101557.28
2018-12-06T11:08:04.690Z,101553.75
2018-12-06T11:10:34.146Z,101550.48
2018-12-06T11:13:03.329Z,101546.92
2018-12-06T11:15:32.551Z,101542.30
2018-12-06T11:18:01.877Z,101546.92
2018-12-06T11:20:31.024Z,101543.91
2018-12-06T11:23:00.191Z,101536.56
2018-12-06T11:25:29.335Z,101543.94
2018-12-06T11:27:58.526Z,101545.56
2018-12-06T11:30:27.627Z,101541.47
2018-12-06T11:32:56.739Z,101547.48
2018-12-06T11:35:26.517Z,101538.22
2018-12-06T11:37:55.567Z,101542.87
2018-12-06T11:40:24.888Z,101538.78
2018-12-06T11:42:54.217Z,101543.69
2018-12-06T11:45:23.537Z,101538.76
2018-12-06T11:47:52.827Z,101520.75
2018-12-06T11:50:22.970Z,101522.94
2018-12-06T11:52:52.099Z,101525.13
2018-12-06T11:55:21.472Z,101526.22
2018-12-06T11:57:50.451Z,101520.46
2018-12-06T12:00:19.675Z,101520.19
2018-12-06T12:02:48.886Z,101513.36
2018-12-06T12:05:17.970Z,101518.28
2018-12-06T12:07:47.353Z,101510.92
2018-12-06T12:10:16.550Z,101517.75
2018-12-06T12:12:49.605Z,101509.56
2018-12-06T12:15:18.762Z,101506.00
2018-12-06T12:17:49.039Z,101508.73
2018-12-06T12:20:18.346Z,101507.38
2018-12-06T12:22:47.744Z,101501.09
2018-12-06T12:25:17.376Z,101499.45
2018-12-06T12:27:48.892Z,101500.81
2018-12-06T12:30:19.708Z,101493.45
2018-12-06T12:32:49.073Z,101494.81
2018-12-06T12:35:18.894Z,101497.59
2018-12-06T12:37:47.816Z,101498.96
2018-12-06T12:40:17.656Z,101493.77
2018-12-06T12:42:47.994Z,101493.50
2018-12-06T12:45:17.208Z,101493.50
2018-12-06T12:47:46.331Z,101489.41
2018-12-06T12:50:15.523Z,101487.72
2018-12-06T12:52:44.861Z,101491.27
2018-12-06T12:55:14.100Z,101490.20
2018-12-06T12:57:43.164Z,101484.20
2018-12-06T13:00:12.621Z,101479.57
2018-12-06T13:02:41.690Z,101477.93
2018-12-06T13:05:10.746Z,101481.20
2018-12-06T13:07:39.990Z,101477.93
2018-12-06T13:10:09.092Z,101482.28
2018-12-06T13:12:38.369Z,101480.92
2018-12-06T13:15:09.222Z,101474.09
2018-12-06T13:17:38.374Z,101476.28
2018-12-06T13:20:07.665Z,101481.21
2018-12-06T13:22:36.805Z,101478.19
2018-12-06T13:25:06.513Z,101474.09
2018-12-06T13:27:35.717Z,101467.27
2018-12-06T13:30:05.739Z,101463.46
2018-12-06T13:32:34.928Z,101469.19
2018-12-06T13:35:04.123Z,101462.36
2018-12-06T13:37:33.293Z,101450.36
2018-12-06T13:40:02.493Z,101448.42
2018-12-06T13:42:31.647Z,101443.24
2018-12-06T13:45:00.812Z,101436.97
2018-12-06T13:47:34.325Z,101438.33
2018-12-06T13:50:06.494Z,101429.87
2018-12-06T13:52:35.794Z,101433.70
2018-12-06T13:55:05.411Z,101439.16
2018-12-06T13:57:35.135Z,101434.52
2018-12-06T14:00:04.707Z,101437.77
2018-12-06T14:02:33.831Z,101446.80
2018-12-06T14:05:03.009Z,101443.53
2018-12-06T14:07:35.873Z,101446.25
2018-12-06T14:12:39.234Z,101450.08
2018-12-06T14:15:09.839Z,101443.50
2018-12-06T14:17:39.024Z,101445.70
2018-12-06T14:20:09.630Z,101445.98
2018-12-06T14:25:13.623Z,101438.88
2018-12-06T14:27:42.693Z,101432.34
2018-12-06T14:30:11.973Z,101435.61
2018-12-06T14:32:41.112Z,101432.05
2018-12-06T14:35:10.916Z,101432.58
2018-12-06T14:37:40.365Z,101428.50
2018-12-06T14:40:09.641Z,101422.23
2018-12-06T14:42:39.312Z,101432.88
2018-12-06T14:45:09.124Z,101440.52
2018-12-06T14:47:38.917Z,101446.51
2018-12-06T14:50:08.893Z,101441.05
2018-12-06T14:52:38.141Z,101451.44
2018-12-06T14:55:07.335Z,101448.70
2018-12-06T14:57:36.545Z,101438.61
2018-12-06T15:00:07.444Z,101443.53
2018-12-06T15:02:37.208Z,101437.50
2018-12-06T15:05:08.096Z,101432.61
2018-12-06T15:07:37.293Z,101427.15
2018-12-06T15:10:07.741Z,101433.15
2018-12-06T15:12:36.841Z,101420.58
2018-12-06T15:15:06.471Z,101421.69
2018-12-06T15:17:35.720Z,101424.95
2018-12-06T15:20:05.049Z,101416.77
2018-12-06T15:22:34.380Z,101420.88
2018-12-06T15:25:06.353Z,101415.12
2018-12-06T15:27:37.807Z,101420.32
2018-12-06T15:30:05.711Z,101424.42
2018-12-06T15:32:34.827Z,101421.95
2018-12-06T15:35:04.042Z,101421.95
2018-12-06T15:37:33.226Z,101418.67
2018-12-06T15:40:03.230Z,101413.75
2018-12-06T15:42:32.409Z,101415.41
2018-12-06T15:45:01.511Z,101414.58
2018-12-06T15:47:30.753Z,101407.75
2018-12-06T15:50:00.764Z,101414.30
2018-12-06T15:52:29.927Z,101411.31
2018-12-06T15:54:59.124Z,101408.58
2018-12-06T15:57:29.173Z,101419.75
2018-12-06T15:59:58.390Z,101413.50
2018-12-06T16:02:27.562Z,101407.20
2018-12-06T16:04:56.753Z,101424.67
2018-12-06T16:07:26.115Z,101424.67
2018-12-06T16:09:55.237Z,101416.48
2018-12-06T16:12:24.357Z,101417.59
2018-12-06T16:14:53.443Z,101412.39
2018-12-06T16:17:22.573Z,101418.14
2018-12-06T16:19:51.684Z,101420.88
2018-12-06T16:22:21.587Z,101417.86
2018-12-06T16:24:51.298Z,101418.66
2018-12-06T16:27:31.277Z,101419.20
2018-12-06T16:30:00.520Z,101419.75
2018-12-06T16:32:35.592Z,101418.13
2018-12-06T16:35:17.184Z,101419.78
2018-12-06T16:37:47.056Z,101419.20
2018-12-06T16:40:16.258Z,101414.85
2018-12-06T16:42:45.557Z,101417.58
2018-12-06T16:45:14.658Z,101415.39
2018-12-06T16:47:44.172Z,101415.39
2018-12-06T16:50:13.406Z,101413.20
2018-12-06T16:52:42.480Z,101408.56
2018-12-06T16:55:11.650Z,101411.31
2018-12-06T16:57:40.756Z,101416.48
2018-12-06T17:00:14.590Z,101417.30
2018-12-06T17:02:42.226Z,101421.39
2018-12-06T17:05:11.449Z,101414.30
2018-12-06T17:07:41.016Z,101421.39
2018-12-06T17:10:10.185Z,101424.95
2018-12-06T17:12:39.339Z,101427.14
2018-12-06T17:15:09.627Z,101418.67
2018-12-06T17:17:39.895Z,101418.39
2018-12-06T17:20:13.790Z,101406.09
2018-12-06T17:22:42.998Z,101408.00
2018-12-06T17:25:13.835Z,101415.66
2018-12-06T17:27:42.903Z,101416.77
2018-12-06T17:30:13.747Z,101417.85
2018-12-06T17:32:42.347Z,101411.30
2018-12-06T17:35:11.448Z,101413.75
2018-12-06T17:37:40.934Z,101413.20
2018-12-06T17:40:10.404Z,101421.68
2018-12-06T17:42:40.451Z,101414.56
2018-12-06T17:45:10.475Z,101412.67
2018-12-06T17:47:39.651Z,101414.05
2018-12-06T17:50:09.090Z,101412.39
2018-12-06T17:52:38.960Z,101409.94
2018-12-06T17:55:08.391Z,101409.66
2018-12-06T17:57:37.597Z,101422.77
2018-12-06T18:00:08.726Z,101417.03
2018-12-06T18:02:37.885Z,101417.86
2018-12-06T18:05:07.415Z,101418.66
2018-12-06T18:07:36.459Z,101409.10
2018-12-06T18:10:06.239Z,101406.66
2018-12-06T18:12:35.339Z,101403.64
2018-12-06T18:15:04.718Z,101412.66
2018-12-06T18:17:33.822Z,101418.67
2018-12-06T18:20:03.456Z,101413.75
2018-12-06T18:22:33.716Z,101411.84
2018-12-06T18:25:03.573Z,101409.94
2018-12-06T18:27:32.840Z,101414.03
2018-12-06T18:30:02.019Z,101415.11
2018-12-06T18:32:31.252Z,101416.77
2018-12-06T18:35:05.579Z,101422.51
2018-12-06T18:37:34.742Z,101416.50
2018-12-06T18:40:04.287Z,101396.02
2018-12-06T18:42:33.475Z,101395.47
2018-12-06T18:45:02.606Z,101380.73
2018-12-06T18:47:31.778Z,101378.81
2018-12-06T18:50:00.910Z,101383.73
2018-12-06T18:52:30.080Z,101380.17
2018-12-06T18:54:59.173Z,101382.37
2018-12-06T18:57:28.977Z,101380.45
2018-12-06T18:59:59.151Z,101373.05
2018-12-06T19:02:28.412Z,101376.31
2018-12-06T19:04:57.811Z,101373.58
2018-12-06T19:07:27.005Z,101371.42
2018-12-06T19:09:57.775Z,101360.50
2018-12-06T19:12:33.994Z,101364.59
2018-12-06T19:17:28.709Z,101373.33
2018-12-06T19:19:59.530Z,101374.16
2018-12-06T19:22:30.501Z,101368.69
2018-12-06T19:25:01.109Z,101366.22
2018-12-06T19:27:34.647Z,101360.77
2018-12-06T19:30:04.064Z,101368.95
2018-12-06T19:32:33.926Z,101361.08
2018-12-06T19:35:03.570Z,101355.87
2018-12-06T19:37:34.709Z,101355.87
2018-12-06T19:40:05.312Z,101351.20
2018-12-06T19:42:38.729Z,101349.30
2018-12-06T19:45:03.699Z,101345.20
2018-12-06T19:47:32.898Z,101339.45
2018-12-06T19:50:02.584Z,101330.18
2018-12-06T19:52:31.907Z,101338.37
2018-12-06T19:55:01.303Z,101340.28
2018-12-06T19:57:35.405Z,101334.83
2018-12-06T20:00:04.725Z,101336.19
2018-12-06T20:02:34.863Z,101333.45
2018-12-06T20:05:04.585Z,101326.38
2018-12-06T20:07:34.280Z,101330.73
2018-12-06T20:10:04.616Z,101317.36
2018-12-06T20:12:34.070Z,101327.17
2018-12-06T20:17:42.828Z,101321.99
2018-12-06T20:20:23.192Z,101315.45
2018-12-06T20:22:46.631Z,101315.16
2018-12-06T20:25:18.761Z,101315.45
2018-12-06T20:27:48.010Z,101305.07
2018-12-06T20:30:17.133Z,101302.88
2018-12-06T20:32:46.514Z,101297.42
2018-12-06T20:35:16.652Z,101299.61
2018-12-06T20:37:47.950Z,101293.61
2018-12-06T20:40:17.135Z,101282.41
2018-12-06T20:42:48.060Z,101287.05
2018-12-06T20:45:17.638Z,101288.41
2018-12-06T20:47:46.872Z,101280.54
2018-12-06T20:50:16.399Z,101271.23
2018-12-06T20:52:46.637Z,101272.61
2018-12-06T20:55:15.771Z,101271.23
2018-12-06T20:57:44.842Z,101268.23
2018-12-06T21:00:14.035Z,101260.32
2018-12-06T21:02:43.132Z,101255.11
2018-12-06T21:05:12.227Z,101264.95
2018-12-06T21:07:41.854Z,101257.31
2018-12-06T21:10:10.993Z,101257.31
2018-12-06T21:12:41.581Z,101251.31
2018-12-06T21:15:10.772Z,101251.85
2018-12-06T21:17:39.926Z,101245.28
2018-12-06T21:20:13.432Z,101242.84
2018-12-06T21:22:44.135Z,101241.47
2018-12-06T21:25:13.505Z,101233.82
2018-12-06T21:27:48.602Z,101228.90
2018-12-06T21:30:17.810Z,101227.00
2018-12-06T21:32:46.945Z,101228.36
2018-12-06T21:35:16.035Z,101222.89
2018-12-06T21:37:45.196Z,101218.00
2018-12-06T21:40:14.585Z,101217.18
2018-12-06T21:42:45.562Z,101214.45
2018-12-06T21:45:15.380Z,101196.95
2018-12-06T21:47:48.460Z,101204.61
2018-12-06T21:50:17.745Z,101211.97
2018-12-06T21:52:47.588Z,101209.53
2018-12-06T21:55:18.791Z,101210.33
2018-12-06T21:57:48.604Z,101218.27
2018-12-06T22:00:18.380Z,101209.25
2018-12-06T22:02:48.083Z,101195.59
2018-12-06T22:05:17.990Z,101183.31
2018-12-06T22:07:47.165Z,101181.12
2018-12-06T22:10:16.343Z,101170.20
2018-12-06T22:12:46.104Z,101169.94
2018-12-06T22:15:15.957Z,101168.00
2018-12-06T22:17:45.647Z,101151.37
2018-12-06T22:20:15.454Z,101151.08
2018-12-06T22:22:44.646Z,101145.91
2018-12-06T22:25:13.855Z,101135.81
2018-12-06T22:27:46.286Z,101135.53
2018-12-06T22:30:20.124Z,101128.70
2018-12-06T22:32:49.565Z,101125.94
2018-12-06T22:35:18.722Z,101122.92
2018-12-06T22:37:48.014Z,101114.44
2018-12-06T22:40:18.048Z,101104.06
2018-12-06T22:42:47.216Z,101090.41
2018-12-06T22:45:55.438Z,101091.77
2018-12-06T22:48:24.640Z,101089.03
2018-12-06T22:50:53.933Z,101084.39
2018-12-06T22:53:23.216Z,101077.00
2018-12-06T22:55:52.319Z,101077.28
2018-12-06T22:58:21.478Z,101088.17
2018-12-06T23:00:56.863Z,101069.05
2018-12-06T23:03:26.112Z,101070.95
2018-12-06T23:05:56.443Z,101068.22
2018-12-06T23:08:26.111Z,101066.27
2018-12-06T23:10:55.912Z,101070.66
2018-12-06T23:13:25.293Z,101064.63
2018-12-06T23:15:54.510Z,101071.19
2018-12-06T23:18:45.102Z,101066.27
2018-12-06T23:21:31.794Z,101057.53
2018-12-06T23:24:21.170Z,101043.59
2018-12-06T23:27:11.666Z,101037.05
2018-12-06T23:30:00.032Z,101038.96
2018-12-06T23:32:48.451Z,101035.98
2018-12-06T23:35:35.397Z,101030.23
2018-12-06T23:38:05.849Z,101024.23
2018-12-06T23:40:53.927Z,101017.16
2018-12-06T23:43:46.529Z,101014.67
2018-12-06T23:46:36.761Z,101016.33
2018-12-06T23:49:06.058Z,101011.16
2018-12-06T23:51:43.446Z,101001.89
2018-12-06T23:54:29.519Z,100993.98
2018-12-06T23:57:18.603Z,100993.70
